KTVL/TVL METAR and TAF weather

Enter ICAO airport designator
Station Type Date Time Source
KTVL METAR 2021/02/28 02:53 UTC NOAA

KTVL 280253Z AUTO 04008KT 010V090 10SM CLR M02/M13 A3013 RMK AO2 SLP234 T10171128 53010


Station Type Date Time Source
KTVL Decoded METAR 2021/02/28 02:53 UTC NOAA

SOUTH LAKE TAHOE AIRPORT, CA, United States (KTVL) 38-53N 119-59W 1925M
Feb 27, 2021 - 09:53 PM EST / 2021.02.28 0253 UTC
Wind: from the NE (040 degrees) at 9 MPH (8 KT) (direction variable):0
Visibility: 10 mile(s):0
Sky conditions: clear
Temperature: 28.9 F (-1.7 C)
Windchill: 21 F (-6 C):1
Dew Point: 9.0 F (-12.8 C)
Relative Humidity: 42%
Pressure (altimeter): 30.13 in. Hg (1020 hPa)
Pressure tendency: 0.03 inches (1.0 hPa) higher than three hours ago
ob: KTVL 280253Z AUTO 04008KT 010V090 10SM CLR M02/M13 A3013 RMK AO2 SLP234 T10171128 53010
cycle: 3

Station Type Date Time Source
KTVL TAF 2021/02/27 18:40 UTC NOAA

TAF KTVL 271738Z 2718/2818 VRB04KT P6SM SCT200
FM271900 04010G18KT P6SM FEW045
FM280300 VRB03KT P6SM SKC

Example: see airport list